Zachary, Louisiana
Current Conditions -  °F | °C
As of 2:53 AM on Friday 24 Oct 2014 (Local Time) from KBTR Reporting Station
Clear Clear  
Wind Chill: 53°   Ceiling: Unl
Heat Index: 53°   Visibility: 10mi
Dew Point: 49°   Wind: 3mph
Humidity: 86%   Direction: 30°NNE
Pressure: 30.09"   Gusts: NA
Location:  30.65°N, 91.16°W
Report Text: KBTR 240753Z 03003KT 10SM CLR 12/09 A3009 RMK AO2 SLP190 T01170094
Loading
Personal Weather Stations






























Interactive Weather Map New forecast layout! Learn more

10-Day Weather Forecast

Advertisements
Track Severe Weather on mobile